Time;durP1;ratioP1;P1;durP2;ratioP2;P2;SDS_P1;SDS_P2;PMS_P1;PMS_P2;Temp;Humidity;BMP_temperature;BMP_pressure;BME280_temperature;BME280_humidity;BME280_pressure;Samples;Min_cycle;Max_cycle;Signal;HPM_P1;HPM_P2
2023/12/18 00:00:32;;;;;;;53.28;2.75;;;;;;;19.55;59.88;100931.41;7309025;19;129740;-38
2023/12/18 00:02:57;;;;;;;147.70;6.28;;;;;;;19.57;58.99;100921.69;7309899;19;130324;-39
2023/12/18 00:05:22;;;;;;;52.40;2.88;;;;;;;19.55;59.46;100920.13;7311180;19;131853;-40
2023/12/18 00:07:48;;;;;;;105.32;4.45;;;;;;;19.57;59.68;100907.84;7311444;19;129639;-34
2023/12/18 00:10:13;;;;;;;110.55;4.78;;;;;;;19.57;58.93;100900.84;7306931;19;130133;-39
2023/12/18 00:12:39;;;;;;;47.70;2.53;;;;;;;19.57;58.90;100900.00;7311345;19;129555;-39
2023/12/18 00:15:06;;;;;;;85.78;4.00;;;;;;;19.58;59.50;100904.28;7309499;19;129359;-38
2023/12/18 00:17:32;;;;;;;140.25;5.43;;;;;;;19.56;59.25;100899.16;7310901;19;129140;-39
2023/12/18 00:19:58;;;;;;;71.25;3.47;;;;;;;19.57;59.49;100900.00;7309327;19;130221;-38
2023/12/18 00:22:24;;;;;;;80.95;4.07;;;;;;;19.57;59.05;100905.22;7307934;19;131543;-39
2023/12/18 00:24:49;;;;;;;93.10;4.22;;;;;;;19.51;59.54;100902.97;7309885;19;129220;-35
2023/12/18 00:27:14;;;;;;;124.80;5.20;;;;;;;19.53;59.08;100901.97;7309135;19;128954;-35
2023/12/18 00:29:40;;;;;;;44.63;2.35;;;;;;;19.56;59.07;100908.75;7307967;19;129399;-39
2023/12/18 00:32:06;;;;;;;81.55;4.00;;;;;;;19.57;59.43;100897.41;7310381;19;129596;-40
2023/12/18 00:34:31;;;;;;;68.75;3.53;;;;;;;19.58;58.59;100894.69;7310191;19;129032;-39
2023/12/18 00:36:57;;;;;;;118.45;5.15;;;;;;;19.60;59.17;100897.22;7309720;19;128994;-36
2023/12/18 00:39:22;;;;;;;93.28;4.20;;;;;;;19.59;58.67;100896.38;7309065;19;130523;-39
2023/12/18 00:41:48;;;;;;;32.97;2.00;;;;;;;19.56;58.65;100887.88;7310556;19;130539;-37
2023/12/18 00:44:13;;;;;;;129.00;5.10;;;;;;;19.56;58.79;100890.50;7309605;19;128927;-39
2023/12/18 00:46:38;;;;;;;79.10;3.65;;;;;;;19.50;59.00;100883.06;7310792;19;129401;-38
2023/12/18 00:49:04;;;;;;;91.20;4.28;;;;;;;19.55;59.07;100873.19;7307322;19;130981;-38
2023/12/18 00:51:29;;;;;;;78.80;3.65;;;;;;;19.57;58.77;100869.53;7307259;19;130261;-40
2023/12/18 00:53:54;;;;;;;165.85;6.38;;;;;;;19.55;58.69;100865.34;7309849;19;129430;-39
2023/12/18 00:56:20;;;;;;;63.60;3.33;;;;;;;19.55;58.97;100865.34;7310041;19;129369;-37
2023/12/18 00:58:45;;;;;;;56.47;2.75;;;;;;;19.54;59.36;100864.50;7307697;19;129210;-40
2023/12/18 01:01:10;;;;;;;50.90;2.65;;;;;;;19.54;59.26;100858.44;7304839;19;130418;-39
2023/12/18 01:03:37;;;;;;;145.18;5.93;;;;;;;19.56;58.83;100859.19;7309951;19;129830;-39
2023/12/18 01:06:03;;;;;;;;;;;;;;;19.56;60.31;100856.59;7311094;19;129083;-39
2023/12/18 01:08:29;;;;;;;66.30;3.10;;;;;;;19.58;58.78;100849.50;7307055;19;130099;-38
2023/12/18 01:10:54;;;;;;;104.03;4.45;;;;;;;19.56;58.53;100848.75;7306155;19;131643;-39
2023/12/18 01:13:19;;;;;;;85.13;3.70;;;;;;;19.54;59.43;100845.41;7309480;19;129757;-38
2023/12/18 01:15:45;;;;;;;72.63;3.17;;;;;;;19.42;58.67;100827.00;7309039;19;128896;-39
2023/12/18 01:18:10;;;;;;;105.95;4.75;;;;;;;19.55;59.24;100828.84;7308978;19;130372;-39
2023/12/18 01:20:35;;;;;;;65.50;2.92;;;;;;;19.57;59.07;100842.63;7304489;19;130957;-38
2023/12/18 01:23:01;;;;;;;138.38;5.63;;;;;;;19.37;58.95;100800.38;7309003;19;129714;-37
2023/12/18 01:25:26;;;;;;;84.63;3.80;;;;;;;19.55;58.71;100826.22;7309256;19;129322;-40
2023/12/18 01:27:53;;;;;;;54.03;2.80;;;;;;;19.43;60.33;100828.69;7308407;19;130173;-40
2023/12/18 01:30:18;;;;;;;105.68;4.32;;;;;;;19.38;60.31;100825.53;7304960;19;131429;-41
2023/12/18 01:32:43;;;;;;;73.72;3.30;;;;;;;19.36;61.31;100822.16;7309507;19;129281;-37
2023/12/18 01:35:09;;;;;;;77.55;3.47;;;;;;;19.31;61.17;100826.84;7308734;19;128795;-36
2023/12/18 01:37:34;;;;;;;76.68;3.17;;;;;;;19.23;61.83;100823.84;7308234;19;129789;-38
2023/12/18 01:39:59;;;;;;;199.60;7.57;;;;;;;19.17;61.90;100824.19;7306360;19;129654;-38
2023/12/18 01:42:25;;;;;;;65.75;3.25;;;;;;;19.14;62.58;100829.59;7317012;19;129628;-37
2023/12/18 01:44:50;;;;;;;47.63;2.63;;;;;;;19.07;62.28;100823.06;7315509;19;129014;-40
2023/12/18 01:47:16;;;;;;;54.63;2.50;;;;;;;19.04;62.56;100812.84;7314940;19;129545;-39
2023/12/18 01:49:43;;;;;;;138.27;5.60;;;;;;;19.02;62.96;100817.31;7313183;19;130427;-38
2023/12/18 01:52:08;;;;;;;90.15;4.10;;;;;;;18.99;62.07;100814.91;7314931;19;129224;-39
2023/12/18 01:54:34;;;;;;;90.40;3.92;;;;;;;18.94;63.09;100810.91;7315035;19;129958;-39
2023/12/18 01:57:01;;;;;;;106.82;4.65;;;;;;;18.95;62.67;100812.56;7313704;19;129589;-42
2023/12/18 01:59:26;;;;;;;187.60;6.82;;;;;;;18.79;62.53;100788.38;7313125;19;130650;-39
2023/12/18 02:01:52;;;;;;;25.27;1.65;;;;;;;18.92;62.75;100808.41;7314776;19;129071;-35
2023/12/18 02:04:19;;;;;;;63.88;3.08;;;;;;;18.90;63.35;100805.03;7315656;19;129672;-40
2023/12/18 02:06:45;;;;;;;90.68;4.13;;;;;;;18.89;62.72;100803.34;7314571;19;130668;-39
2023/12/18 02:09:11;;;;;;;152.30;6.28;;;;;;;18.89;62.91;100807.75;7311260;19;130352;-38
2023/12/18 02:11:37;;;;;;;52.47;2.63;;;;;;;18.90;63.33;100798.97;7312063;19;129628;-39
2023/12/18 02:14:02;;;;;;;111.53;4.60;;;;;;;18.88;63.71;100799.09;7313353;19;129814;-37
2023/12/18 02:16:28;;;;;;;37.78;2.30;;;;;;;18.89;63.05;100803.34;7313941;19;129049;-39
2023/12/18 02:18:54;;;;;;;120.68;4.70;;;;;;;18.76;62.62;100792.00;7313706;19;130418;-37
2023/12/18 02:21:20;;;;;;;49.30;2.47;;;;;;;18.90;62.58;100814.63;7311227;19;129556;-38
2023/12/18 02:23:47;;;;;;;86.15;3.63;;;;;;;18.88;63.07;100809.50;7312995;19;129523;-37
2023/12/18 02:26:13;;;;;;;136.17;5.43;;;;;;;18.89;62.73;100798.13;7312779;19;130335;-38
2023/12/18 02:28:38;;;;;;;96.10;3.95;;;;;;;18.90;63.14;100797.22;7313690;19;130296;-37
2023/12/18 02:31:04;;;;;;;109.57;4.40;;;;;;;18.83;62.82;100788.09;7311994;19;129653;-40
2023/12/18 02:33:30;;;;;;;61.30;2.87;;;;;;;18.87;63.17;100792.22;7312969;19;129032;-37
2023/12/18 02:36:00;;;;;;;112.25;4.50;;;;;;;18.90;63.21;100792.00;7312921;19;130449;-39
2023/12/18 02:38:26;;;;;;;57.53;2.65;;;;;;;18.89;62.96;100797.31;7313242;19;130402;-36
2023/12/18 02:40:51;;;;;;;85.95;3.53;;;;;;;18.73;63.10;100763.53;7312970;19;129857;-40
2023/12/18 02:43:16;;;;;;;54.00;2.45;;;;;;;18.89;62.67;100790.31;7313864;19;132900;-37
2023/12/18 02:45:42;;;;;;;102.60;4.07;;;;;;;18.90;62.61;100784.19;7312033;19;130100;-40
2023/12/18 02:48:07;;;;;;;122.97;4.85;;;;;;;18.74;63.08;100753.97;7312351;19;129383;-38
2023/12/18 02:50:32;;;;;;;42.67;2.15;;;;;;;18.88;63.25;100767.81;7310283;19;128973;-38
2023/12/18 02:52:58;;;;;;;74.50;3.25;;;;;;;18.88;63.52;100770.41;7308996;19;128812;-39
2023/12/18 02:55:23;;;;;;;142.93;5.40;;;;;;;18.89;62.72;100768.66;7311630;19;131507;-39
2023/12/18 02:57:48;;;;;;;50.28;2.22;;;;;;;18.90;63.17;100763.34;7314374;19;130358;-36
2023/12/18 03:00:14;;;;;;;123.80;4.82;;;;;;;18.89;62.75;100759.06;7309771;19;129554;-39
2023/12/18 03:02:40;;;;;;;44.15;2.40;;;;;;;18.88;63.55;100764.38;7312878;19;129964;-39
2023/12/18 03:05:05;;;;;;;189.93;7.05;;;;;;;18.88;63.36;100765.22;7312028;19;129547;-37
2023/12/18 03:07:31;;;;;;;109.78;4.43;;;;;;;18.89;63.27;100751.25;7312449;19;130310;-38
2023/12/18 03:09:56;;;;;;;49.55;2.47;;;;;;;18.74;63.20;100730.53;7310066;19;129022;-39
2023/12/18 03:12:21;;;;;;;96.72;3.85;;;;;;;18.88;63.25;100752.19;7312747;19;129419;-39
2023/12/18 03:14:47;;;;;;;78.97;3.20;;;;;;;18.90;63.02;100758.16;7313285;19;130162;-37
2023/12/18 03:17:12;;;;;;;111.47;4.70;;;;;;;18.88;63.16;100754.78;7312096;19;130441;-40
2023/12/18 03:19:37;;;;;;;62.92;2.80;;;;;;;18.88;63.11;100757.41;7311595;19;130752;-38
2023/12/18 03:22:03;;;;;;;136.27;5.20;;;;;;;18.89;63.51;100758.25;7313025;19;129434;-38
2023/12/18 03:24:28;;;;;;;88.40;3.70;;;;;;;18.89;62.94;100764.25;7311500;19;129373;-36
2023/12/18 03:26:53;;;;;;;84.25;3.40;;;;;;;18.82;63.01;100734.34;7312552;19;129166;-38
2023/12/18 03:29:19;;;;;;;76.97;3.33;;;;;;;18.89;63.35;100742.59;7310805;19;130175;-38
2023/12/18 03:31:44;;;;;;;95.53;3.67;;;;;;;18.90;62.89;100742.50;7308821;19;129157;-38
2023/12/18 03:34:09;;;;;;;85.65;3.38;;;;;;;18.91;63.26;100744.16;7312406;19;130095;-37
2023/12/18 03:36:35;;;;;;;109.10;4.43;;;;;;;18.92;62.82;100752.84;7311302;19;130415;-39
2023/12/18 03:39:00;;;;;;;61.15;2.85;;;;;;;18.92;63.65;100751.06;7310867;19;130042;-39
2023/12/18 03:41:25;;;;;;;70.35;2.92;;;;;;;18.81;63.54;100739.59;7309746;19;128789;-35
2023/12/18 03:43:51;;;;;;;53.40;2.40;;;;;;;18.91;62.83;100749.38;7313398;19;130096;-40
2023/12/18 03:46:16;;;;;;;336.70;14.27;;;;;;;18.92;62.84;100751.06;7307568;19;130450;-40
2023/12/18 03:48:42;;;;;;;92.50;3.80;;;;;;;18.77;62.97;100730.31;7309941;19;129493;-38
2023/12/18 03:51:07;;;;;;;162.45;6.32;;;;;;;18.92;63.42;100751.06;7309111;19;129114;-45
2023/12/18 03:53:33;;;;;;;51.25;2.25;;;;;;;18.94;63.00;100753.59;7312111;19;130141;-37
2023/12/18 03:55:58;;;;;;;80.13;3.47;;;;;;;18.93;63.51;100762.31;7310404;19;130220;-39
2023/12/18 03:58:23;;;;;;;89.03;3.70;;;;;;;18.84;63.24;100748.06;7310143;19;129297;-39
2023/12/18 04:00:49;;;;;;;172.18;6.57;;;;;;;18.94;62.70;100767.44;7308100;19;129524;-39
2023/12/18 04:03:14;;;;;;;87.35;3.47;;;;;;;18.93;63.17;100763.16;7308350;19;129201;-35
2023/12/18 04:05:39;;;;;;;54.38;2.45;;;;;;;18.95;63.35;100763.06;7309029;19;132779;-38
2023/12/18 04:08:05;;;;;;;217.43;9.38;;;;;;;18.80;63.19;100735.34;7310124;19;132018;-42
2023/12/18 04:10:30;;;;;;;41.78;2.15;;;;;;;18.95;63.62;100750.03;7308519;19;129417;-37
2023/12/18 04:12:56;;;;;;;54.53;2.28;;;;;;;18.97;62.47;100764.63;7310525;19;130152;-37
2023/12/18 04:15:21;;;;;;;65.38;3.03;;;;;;;18.92;63.12;100755.44;7309386;19;130425;-39
2023/12/18 04:17:47;;;;;;;101.38;3.88;;;;;;;18.95;63.22;100766.50;7311021;19;128900;-39
2023/12/18 04:20:12;;;;;;;146.55;5.78;;;;;;;18.94;63.38;100770.03;7308199;19;128950;-35
2023/12/18 04:22:37;;;;;;;27.77;1.60;;;;;;;18.83;63.34;100749.03;7310428;19;130170;-40
2023/12/18 04:25:03;;;;;;;66.00;2.63;;;;;;;18.92;63.49;100764.09;7309754;19;130304;-37
2023/12/18 04:27:28;;;;;;;154.63;5.93;;;;;;;18.96;63.01;100772.53;7310464;19;129018;-37
2023/12/18 04:29:54;;;;;;;78.72;3.28;;;;;;;18.94;63.05;100764.81;7309296;19;129090;-38
2023/12/18 04:32:19;;;;;;;69.20;2.92;;;;;;;18.95;63.49;100763.91;7309011;19;131291;-40
2023/12/18 04:34:45;;;;;;;69.03;2.88;;;;;;;18.96;63.12;100768.19;7309929;19;129268;-38
2023/12/18 04:37:10;;;;;;;157.45;6.00;;;;;;;18.94;63.27;100770.03;7309604;19;129063;-40
2023/12/18 04:39:36;;;;;;;77.00;2.97;;;;;;;18.95;62.66;100787.38;7309908;19;131263;-38
2023/12/18 04:42:01;;;;;;;18.95;1.13;;;;;;;18.80;62.44;100762.25;7309201;19;129543;-41
2023/12/18 04:44:28;;;;;;;120.43;4.68;;;;;;;18.95;62.39;100784.75;7308552;19;129136;-36
2023/12/18 04:46:53;;;;;;;100.63;3.78;;;;;;;18.98;62.32;100781.97;7310903;19;129600;-38
2023/12/18 04:49:19;;;;;;;109.38;4.28;;;;;;;18.97;62.74;100780.25;7308196;19;128934;-37
2023/12/18 04:51:44;;;;;;;98.68;3.88;;;;;;;18.94;63.18;100777.84;7306605;19;130326;-38
2023/12/18 04:54:10;;;;;;;147.60;5.68;;;;;;;18.94;62.96;100770.03;7308328;19;129583;-37
2023/12/18 04:56:35;;;;;;;114.50;4.18;;;;;;;18.95;62.91;100774.34;7310634;19;129470;-38
2023/12/18 04:59:00;;;;;;;80.30;3.35;;;;;;;19.01;62.51;100771.34;7306882;19;129986;-37
2023/12/18 05:01:26;;;;;;;72.20;2.92;;;;;;;19.04;62.17;100772.94;7304434;19;130771;-40
2023/12/18 05:03:51;;;;;;;76.53;3.13;;;;;;;19.07;62.05;100775.34;7308957;19;129351;-37
2023/12/18 05:06:43;;;;;;;87.22;3.50;;;;;;;19.10;62.29;100765.56;7308475;19;129580;-39
2023/12/18 05:09:08;;;;;;;112.60;4.43;;;;;;;19.12;62.12;100763.69;7307081;19;129882;-37
2023/12/18 05:11:35;;;;;;;65.18;2.78;;;;;;;19.12;62.09;100768.91;7306417;19;130246;-40
2023/12/18 05:14:00;;;;;;;65.50;2.83;;;;;;;19.08;61.71;100762.22;7307693;19;130469;-38
2023/12/18 05:16:25;;;;;;;116.50;4.38;;;;;;;19.13;62.19;100765.38;7312500;19;129938;-40
2023/12/18 05:18:51;;;;;;;39.38;1.90;;;;;;;19.07;61.75;100776.16;7315442;19;129562;-39
2023/12/18 05:21:16;;;;;;;125.07;4.90;;;;;;;19.07;62.60;100785.78;7310913;19;129852;-39
2023/12/18 05:23:41;;;;;;;84.35;3.45;;;;;;;19.04;62.36;100786.78;7314457;19;130429;-37
2023/12/18 05:26:07;;;;;;;149.50;5.60;;;;;;;19.02;62.08;100788.63;7313555;19;129237;-38
2023/12/18 05:28:32;;;;;;;77.97;3.25;;;;;;;19.02;62.57;100793.84;7314615;19;129114;-39
2023/12/18 05:30:58;;;;;;;47.53;2.28;;;;;;;18.99;62.29;100788.00;7312790;19;129545;-38
2023/12/18 05:33:25;;;;;;;69.45;2.97;;;;;;;18.99;62.95;100788.84;7315059;19;130262;-38
2023/12/18 05:35:50;;;;;;;111.53;4.15;;;;;;;18.98;62.95;100781.97;7315367;19;129135;-37
2023/12/18 05:38:15;;;;;;;137.63;5.40;;;;;;;18.88;62.92;100762.59;7315144;19;129082;-37
2023/12/18 05:40:41;;;;;;;88.63;3.60;;;;;;;18.97;62.65;100775.06;7312803;19;130113;-39
2023/12/18 05:43:07;;;;;;;76.47;3.05;;;;;;;18.98;62.90;100770.69;7315499;19;130213;-35
2023/12/18 05:45:33;;;;;;;143.10;5.27;;;;;;;18.94;63.42;100762.22;7315103;19;129089;-38
2023/12/18 05:47:59;;;;;;;68.00;2.72;;;;;;;18.98;63.06;100763.72;7315968;19;129274;-39
2023/12/18 05:50:24;;;;;;;93.53;3.57;;;;;;;19.02;62.59;100761.75;7310552;19;129627;-37
2023/12/18 05:52:50;;;;;;;123.00;4.85;;;;;;;19.00;62.80;100756.66;7314173;19;129154;-41
2023/12/18 05:55:15;;;;;;;140.25;5.35;;;;;;;19.05;62.73;100745.94;7314950;19;129353;-36
2023/12/18 05:57:41;;;;;;;29.52;1.58;;;;;;;19.06;62.36;100753.66;7313923;19;128862;-35
2023/12/18 06:00:07;;;;;;;82.93;3.30;;;;;;;19.07;61.97;100752.72;7311795;19;130994;-38
2023/12/18 06:02:33;;;;;;;150.30;5.50;;;;;;;19.08;62.96;100757.00;7313994;19;130831;-37
2023/12/18 06:04:58;;;;;;;100.25;3.92;;;;;;;19.08;62.53;100746.59;7315349;19;129212;-37
2023/12/18 06:07:23;;;;;;;160.70;6.15;;;;;;;19.12;62.55;100753.25;7312101;19;129866;-39
2023/12/18 06:09:49;;;;;;;48.63;2.35;;;;;;;18.98;62.88;100729.84;7310682;19;129442;-37
2023/12/18 06:12:14;;;;;;;195.27;7.25;;;;;;;19.09;62.76;100768.25;7311766;19;130510;-37
2023/12/18 06:14:39;;;;;;;80.72;3.25;;;;;;;19.12;61.91;100766.28;7312552;19;129219;-36
2023/12/18 06:17:05;;;;;;;82.97;3.42;;;;;;;19.14;61.92;100767.03;7313043;19;128863;-38
2023/12/18 06:19:30;;;;;;;59.38;2.60;;;;;;;19.19;61.96;100770.19;7311964;19;130316;-39
2023/12/18 06:21:56;;;;;;;135.88;5.50;;;;;;;19.16;61.47;100765.19;7313758;19;131070;-37
2023/12/18 06:24:21;;;;;;;115.80;4.93;;;;;;;19.18;61.68;100765.09;7314132;19;129119;-38
2023/12/18 06:26:47;;;;;;;64.32;2.90;;;;;;;19.20;62.44;100764.06;7313027;19;129083;-39
2023/12/18 06:29:12;;;;;;;102.88;4.25;;;;;;;19.19;61.69;100767.59;7310513;19;129769;-39
2023/12/18 06:31:37;;;;;;;134.73;5.05;;;;;;;19.21;61.77;100752.69;7310748;19;131330;-37
2023/12/18 06:34:03;;;;;;;73.68;3.45;;;;;;;19.19;62.57;100764.97;7313101;19;130485;-37
2023/12/18 06:36:29;;;;;;;62.67;2.53;;;;;;;19.18;62.14;100763.31;7311864;19;130841;-40
2023/12/18 06:38:54;;;;;;;84.43;3.38;;;;;;;19.18;61.89;100760.72;7310267;19;130634;-38
2023/12/18 06:41:19;;;;;;;163.45;6.43;;;;;;;19.19;62.01;100758.94;7308692;19;131129;-37
2023/12/18 06:43:45;;;;;;;111.20;4.57;;;;;;;19.19;62.42;100754.56;7308356;19;128981;-36
2023/12/18 06:46:10;;;;;;;68.40;2.97;;;;;;;19.21;62.39;100759.66;7310659;19;129475;-36
2023/12/18 06:48:36;;;;;;;108.75;4.28;;;;;;;19.22;62.18;100759.56;7310004;19;130227;-37
2023/12/18 06:51:01;;;;;;;79.50;3.35;;;;;;;19.22;61.74;100756.97;7308980;19;130563;-38
2023/12/18 06:53:26;;;;;;;130.27;5.35;;;;;;;19.12;61.34;100752.44;7312336;19;130778;-40
2023/12/18 06:55:52;;;;;;;112.55;4.60;;;;;;;19.26;61.50;100768.88;7312039;19;129296;-39
2023/12/18 06:58:17;;;;;;;234.02;9.07;;;;;;;19.25;62.25;100763.78;7311538;19;130347;-37
2023/12/18 07:00:43;;;;;;;93.78;3.92;;;;;;;19.22;62.38;100774.41;7308726;19;129204;-36
2023/12/18 07:03:09;;;;;;;63.63;2.83;;;;;;;19.16;61.86;100782.59;7311473;19;129464;-39
2023/12/18 07:05:35;;;;;;;66.82;2.72;;;;;;;18.94;62.01;100762.22;7311573;19;129161;-38
2023/12/18 07:08:00;;;;;;;179.57;7.13;;;;;;;19.09;61.85;100795.16;7310385;19;130064;-34
2023/12/18 07:10:26;;;;;;;118.07;5.22;;;;;;;18.99;62.47;100772.38;7306668;19;130030;-38
2023/12/18 07:12:51;;;;;;;53.72;2.72;;;;;;;19.02;61.85;100790.44;7313241;19;129095;-37
2023/12/18 07:15:16;;;;;;;124.97;4.90;;;;;;;19.02;62.12;100793.03;7307485;19;130102;-36
2023/12/18 07:17:42;;;;;;;126.63;4.88;;;;;;;18.95;62.29;100787.38;7311781;19;130702;-38
2023/12/18 07:20:08;;;;;;;94.68;4.07;;;;;;;18.97;62.36;100790.69;7310300;19;130349;-40
2023/12/18 07:22:34;;;;;;;67.60;3.15;;;;;;;18.95;62.70;100791.72;7310853;19;128930;-40
2023/12/18 07:25:00;;;;;;;106.63;4.50;;;;;;;18.92;63.15;100790.16;7309753;19;129248;-39
2023/12/18 07:27:25;;;;;;;142.38;5.95;;;;;;;18.93;62.69;100799.66;7310293;19;130274;-38
2023/12/18 07:29:50;;;;;;;90.82;3.92;;;;;;;18.93;62.32;100796.19;7307192;19;129157;-37
2023/12/18 07:32:16;;;;;;;73.90;3.13;;;;;;;18.93;62.47;100793.59;7309132;19;129182;-37
2023/12/18 07:34:42;;;;;;;240.15;8.95;;;;;;;18.88;63.67;100793.03;7308629;19;129306;-37
2023/12/18 07:37:07;;;;;;;112.85;4.45;;;;;;;18.87;63.31;100805.22;7303720;19;129629;-36
2023/12/18 07:39:32;;;;;;;93.43;4.10;;;;;;;18.87;63.25;100802.63;7306394;19;133033;-37
2023/12/18 07:41:58;;;;;;;70.97;2.88;;;;;;;18.88;63.10;100804.28;7312020;19;129091;-37
2023/12/18 07:44:23;;;;;;;165.02;6.43;;;;;;;18.87;63.28;100813.06;7309654;19;129548;-37
2023/12/18 07:46:50;;;;;;;58.83;2.90;;;;;;;18.88;62.57;100817.31;7312098;19;129563;-37
2023/12/18 07:49:16;;;;;;;83.40;3.58;;;;;;;18.87;62.88;100820.88;7310534;19;130456;-37
2023/12/18 07:51:41;;;;;;;65.67;2.80;;;;;;;18.86;63.48;100819.19;7309274;19;129593;-37
2023/12/18 07:54:07;;;;;;;151.13;5.75;;;;;;;18.86;63.64;100821.78;7311272;19;129004;-37
2023/12/18 07:56:32;;;;;;;94.80;4.25;;;;;;;18.86;63.36;100820.94;7310962;19;130861;-37
2023/12/18 07:58:57;;;;;;;127.07;4.90;;;;;;;18.84;63.16;100815.81;7310853;19;130403;-38
2023/12/18 08:01:23;;;;;;;115.90;5.00;;;;;;;18.87;63.10;100820.88;7308792;19;129176;-37
2023/12/18 08:03:48;;;;;;;159.90;6.00;;;;;;;18.85;63.29;100817.50;7309943;19;129086;-37
2023/12/18 08:06:13;;;;;;;52.13;2.33;;;;;;;18.86;63.02;100818.31;7310196;19;130075;-37
2023/12/18 08:08:39;;;;;;;78.15;3.38;;;;;;;18.88;63.35;100812.09;7307129;19;130041;-37
2023/12/18 08:11:05;;;;;;;85.30;3.50;;;;;;;18.88;62.58;100812.09;7306566;19;129258;-37
2023/12/18 08:13:30;;;;;;;158.77;6.22;;;;;;;18.88;63.13;100816.47;7311359;19;129075;-37
2023/12/18 08:15:55;;;;;;;62.50;2.83;;;;;;;18.87;63.40;100810.44;7310038;19;130724;-37
2023/12/18 08:18:21;;;;;;;76.75;3.28;;;;;;;18.87;63.51;100810.44;7309495;19;131394;-37
2023/12/18 08:20:46;;;;;;;126.93;4.78;;;;;;;18.86;63.63;100813.97;7307520;19;129722;-37
2023/12/18 08:23:12;;;;;;;120.25;4.63;;;;;;;18.86;63.74;100808.75;7310964;19;129027;-37
2023/12/18 08:25:37;;;;;;;78.13;3.45;;;;;;;18.86;63.24;100808.75;7309745;19;130130;-37
2023/12/18 08:28:02;;;;;;;58.25;2.55;;;;;;;18.87;63.78;100810.44;7308734;19;130266;-38
2023/12/18 08:30:28;;;;;;;188.13;7.00;;;;;;;18.88;64.00;100806.06;7308247;19;129109;-38
2023/12/18 08:32:54;;;;;;;59.72;2.42;;;;;;;18.87;63.50;100810.44;7311987;19;129442;-38
2023/12/18 08:35:19;;;;;;;66.30;3.00;;;;;;;18.87;63.28;100809.59;7310480;19;130378;-38
2023/12/18 08:37:44;;;;;;;79.10;3.53;;;;;;;18.86;63.36;100806.16;7309816;19;130337;-38
2023/12/18 08:40:10;;;;;;;118.65;4.63;;;;;;;18.91;63.23;100809.31;7311051;19;129606;-37
2023/12/18 08:42:35;;;;;;;87.32;3.70;;;;;;;18.88;63.67;100817.31;7311655;19;129185;-38
2023/12/18 08:45:01;;;;;;;51.20;2.53;;;;;;;18.92;62.67;100813.63;7309555;19;130140;-38
2023/12/18 08:47:26;;;;;;;158.35;6.40;;;;;;;18.91;62.68;100822.34;7309648;19;130505;-37
2023/12/18 08:49:52;;;;;;;132.82;5.60;;;;;;;18.91;63.25;100827.56;7312449;19;129312;-37
2023/12/18 08:52:17;;;;;;;47.63;2.75;;;;;;;18.92;62.50;100829.25;7318893;19;129137;-37
2023/12/18 08:54:43;;;;;;;143.95;5.82;;;;;;;18.91;63.12;100832.75;7317181;19;131414;-37
2023/12/18 08:57:08;;;;;;;99.63;4.13;;;;;;;18.89;62.60;100832.00;7316882;19;130995;-37
2023/12/18 08:59:34;;;;;;;167.75;6.70;;;;;;;18.87;62.77;100828.69;7315149;19;129276;-38
2023/12/18 09:01:59;;;;;;;50.60;2.50;;;;;;;18.93;63.13;100836.13;7317211;19;130140;-37
2023/12/18 09:04:25;;;;;;;94.47;4.07;;;;;;;18.92;62.99;100837.06;7316109;19;129415;-37
2023/12/18 09:06:50;;;;;;;124.18;4.93;;;;;;;18.94;62.24;100832.56;7315049;19;130160;-38
2023/12/18 09:09:15;;;;;;;100.60;3.97;;;;;;;18.80;63.28;100811.75;7315438;19;129347;-38
2023/12/18 09:11:41;;;;;;;82.78;3.60;;;;;;;18.93;63.43;100836.13;7310975;19;129200;-37
2023/12/18 09:14:07;;;;;;;85.60;3.75;;;;;;;18.79;62.40;100811.84;7316626;19;130788;-37
2023/12/18 09:16:32;;;;;;;178.10;7.13;;;;;;;18.96;62.53;100829.88;7315473;19;130507;-37
2023/12/18 09:18:58;;;;;;;99.18;5.68;;;;;;;18.94;62.58;100837.78;7313974;19;129754;-37
2023/12/18 09:21:23;;;;;;;122.43;5.07;;;;;;;18.91;62.17;100840.59;7309763;19;130100;-39
2023/12/18 09:23:49;;;;;;;109.75;4.50;;;;;;;18.92;62.40;100829.25;7309516;19;129969;-39
2023/12/18 09:26:15;;;;;;;195.70;7.40;;;;;;;18.94;61.21;100832.56;7310562;19;130433;-38
2023/12/18 09:28:40;;;;;;;76.63;3.65;;;;;;;18.98;61.79;100831.47;7310120;19;129571;-38
2023/12/18 09:31:06;;;;;;;66.60;3.30;;;;;;;18.85;62.13;100811.44;7312233;19;129151;-38
2023/12/18 09:33:33;;;;;;;90.82;4.05;;;;;;;18.98;62.91;100823.66;7314486;19;130914;-36
2023/12/18 09:35:59;;;;;;;124.78;5.10;;;;;;;18.99;62.80;100827.91;7314018;19;130266;-37
2023/12/18 09:38:25;;;;;;;109.68;5.07;;;;;;;19.00;62.22;100827.00;7313560;19;128939;-37
2023/12/18 09:40:50;;;;;;;54.78;3.17;;;;;;;18.99;62.27;100814.91;7314240;19;130103;-37
2023/12/18 09:43:19;;;;;;;157.05;7.05;;;;;;;18.84;62.23;100794.16;7312855;19;130133;-37
2023/12/18 09:45:48;;;;;;;141.15;5.80;;;;;;;18.99;62.95;100829.72;7312494;19;130259;-36
2023/12/18 09:48:17;;;;;;;204.77;9.13;;;;;;;19.01;62.60;100828.69;7313498;19;128960;-37
2023/12/18 09:50:45;;;;;;;193.07;8.25;;;;;;;18.98;62.16;100828.88;7309420;19;130418;-37
2023/12/18 09:53:17;;;;;;;108.60;4.82;;;;;;;19.01;61.98;100828.69;7311789;19;130181;-37
2023/12/18 09:55:44;;;;;;;144.90;5.90;;;;;;;18.87;61.59;100805.22;7311866;19;131018;-38
2023/12/18 09:58:13;;;;;;;209.65;9.43;;;;;;;18.99;62.04;100827.91;7313075;19;129238;-37
2023/12/18 10:00:39;;;;;;;103.43;4.68;;;;;;;19.00;62.40;100828.78;7312404;19;129112;-37
2023/12/18 10:03:04;;;;;;;60.97;2.92;;;;;;;18.83;62.20;100808.94;7313866;19;130409;-38
2023/12/18 10:05:30;;;;;;;178.70;7.43;;;;;;;19.00;61.92;100831.38;7314231;19;129214;-37
2023/12/18 10:07:59;;;;;;;121.25;5.10;;;;;;;18.83;62.26;100803.72;7316008;19;129730;-37
2023/12/18 10:10:25;;;;;;;72.90;3.47;;;;;;;19.00;61.89;100821.81;7313421;19;130268;-37
2023/12/18 10:12:52;;;;;;;65.88;3.17;;;;;;;19.00;62.59;100819.19;7314069;19;130135;-37
2023/12/18 10:15:17;;;;;;;107.78;4.50;;;;;;;18.99;62.34;100807.06;7313792;19;129495;-38
2023/12/18 10:17:44;;;;;;;113.15;4.68;;;;;;;18.82;62.17;100781.22;7314299;19;129072;-37
2023/12/18 10:20:11;;;;;;;59.05;3.13;;;;;;;18.98;62.27;100810.63;7313057;19;128785;-37
2023/12/18 10:22:40;;;;;;;66.53;3.40;;;;;;;18.97;62.44;100795.91;7312527;19;130407;-37
2023/12/18 10:25:05;;;;;;;83.38;3.65;;;;;;;19.01;62.47;100792.19;7314183;19;130383;-37
2023/12/18 10:27:32;;;;;;;142.32;5.75;;;;;;;18.92;62.19;100774.53;7314095;19;129071;-38
2023/12/18 10:29:57;;;;;;;61.88;3.03;;;;;;;18.98;62.00;100786.31;7313800;19;130287;-38
2023/12/18 10:32:25;;;;;;;83.75;3.85;;;;;;;18.98;62.63;100776.75;7312913;19;130037;-37
2023/12/18 10:34:51;;;;;;;84.15;4.00;;;;;;;18.95;62.61;100774.34;7313001;19;130382;-37
2023/12/18 10:37:18;;;;;;;103.47;4.32;;;;;;;18.97;62.38;100774.25;7314489;19;130524;-37
2023/12/18 10:39:49;;;;;;;57.35;2.58;;;;;;;18.98;62.76;100773.28;7313609;19;131810;-38
2023/12/18 10:42:30;;;;;;;32.58;2.30;;;;;;;18.98;63.05;100771.53;7313967;19;129104;-38
2023/12/18 10:44:58;;;;;;;69.40;3.33;;;;;;;18.98;62.65;100761.09;7313143;19;130746;-39
2023/12/18 10:47:25;;;;;;;96.10;3.78;;;;;;;18.97;62.26;100759.41;7314127;19;128979;-38
2023/12/18 10:49:53;;;;;;;117.05;4.60;;;;;;;18.98;62.88;100755.91;7312701;19;129421;-38
2023/12/18 10:52:19;;;;;;;71.70;3.53;;;;;;;18.93;62.68;100739.72;7311710;19;130258;-41
2023/12/18 10:54:45;;;;;;;151.02;6.20;;;;;;;18.98;62.84;100742.88;7310405;19;130336;-39
2023/12/18 10:57:11;;;;;;;217.15;8.55;;;;;;;18.98;62.86;100740.25;7311580;19;129347;-42
2023/12/18 10:59:38;;;;;;;122.60;5.47;;;;;;;18.96;62.91;100755.16;7309781;19;129075;-36